sensor_id;sensor_type;location;lat;lon;timestamp;P1;durP1;ratioP1;P2;durP2;ratioP2
3052;SDS011;1536;51.098;6.414;2023-07-31T00:02:06;8.23;;;3.70;;
3052;SDS011;1536;51.098;6.414;2023-07-31T00:04:34;6.80;;;3.50;;
3052;SDS011;1536;51.098;6.414;2023-07-31T00:07:01;6.70;;;3.40;;
3052;SDS011;1536;51.098;6.414;2023-07-31T00:09:32;7.37;;;3.93;;
3052;SDS011;1536;51.098;6.414;2023-07-31T00:11:59;7.67;;;3.70;;
3052;SDS011;1536;51.098;6.414;2023-07-31T00:14:26;11.17;;;4.20;;
3052;SDS011;1536;51.098;6.414;2023-07-31T00:16:53;10.33;;;4.00;;
3052;SDS011;1536;51.098;6.414;2023-07-31T00:19:22;9.37;;;4.17;;
3052;SDS011;1536;51.098;6.414;2023-07-31T00:21:49;8.10;;;4.27;;
3052;SDS011;1536;51.098;6.414;2023-07-31T00:24:17;6.90;;;5.10;;
3052;SDS011;1536;51.098;6.414;2023-07-31T00:26:46;5.50;;;3.23;;
3052;SDS011;1536;51.098;6.414;2023-07-31T00:29:13;9.83;;;3.30;;
3052;SDS011;1536;51.098;6.414;2023-07-31T00:31:40;12.43;;;3.70;;
3052;SDS011;1536;51.098;6.414;2023-07-31T00:34:08;7.27;;;3.80;;
3052;SDS011;1536;51.098;6.414;2023-07-31T00:36:37;10.97;;;4.17;;
3052;SDS011;1536;51.098;6.414;2023-07-31T00:39:06;5.83;;;3.40;;
3052;SDS011;1536;51.098;6.414;2023-07-31T00:41:33;7.67;;;3.70;;
3052;SDS011;1536;51.098;6.414;2023-07-31T00:44:00;7.30;;;4.07;;
3052;SDS011;1536;51.098;6.414;2023-07-31T00:46:27;7.13;;;3.20;;
3052;SDS011;1536;51.098;6.414;2023-07-31T00:48:54;6.87;;;3.50;;
3052;SDS011;1536;51.098;6.414;2023-07-31T00:51:21;8.70;;;4.00;;
3052;SDS011;1536;51.098;6.414;2023-07-31T00:53:51;7.10;;;3.00;;
3052;SDS011;1536;51.098;6.414;2023-07-31T00:56:20;6.80;;;3.73;;
3052;SDS011;1536;51.098;6.414;2023-07-31T00:58:48;5.07;;;3.43;;
3052;SDS011;1536;51.098;6.414;2023-07-31T01:01:15;8.13;;;3.60;;
3052;SDS011;1536;51.098;6.414;2023-07-31T01:03:43;9.10;;;3.70;;
3052;SDS011;1536;51.098;6.414;2023-07-31T01:09:01;6.03;;;3.03;;
3052;SDS011;1536;51.098;6.414;2023-07-31T01:11:33;6.37;;;3.83;;
3052;SDS011;1536;51.098;6.414;2023-07-31T01:14:04;7.50;;;3.50;;
3052;SDS011;1536;51.098;6.414;2023-07-31T01:16:31;7.83;;;4.10;;
3052;SDS011;1536;51.098;6.414;2023-07-31T01:19:00;8.27;;;3.83;;
3052;SDS011;1536;51.098;6.414;2023-07-31T01:21:41;9.70;;;4.20;;
3052;SDS011;1536;51.098;6.414;2023-07-31T01:24:30;8.30;;;3.57;;
3052;SDS011;1536;51.098;6.414;2023-07-31T01:27:10;9.70;;;3.80;;
3052;SDS011;1536;51.098;6.414;2023-07-31T01:29:43;7.83;;;3.90;;
3052;SDS011;1536;51.098;6.414;2023-07-31T01:32:18;7.50;;;4.30;;
3052;SDS011;1536;51.098;6.414;2023-07-31T01:34:53;13.10;;;3.73;;
3052;SDS011;1536;51.098;6.414;2023-07-31T01:37:21;8.90;;;4.33;;
3052;SDS011;1536;51.098;6.414;2023-07-31T01:39:53;7.00;;;3.83;;
3052;SDS011;1536;51.098;6.414;2023-07-31T01:42:23;11.97;;;4.70;;
3052;SDS011;1536;51.098;6.414;2023-07-31T01:44:50;12.13;;;3.80;;
3052;SDS011;1536;51.098;6.414;2023-07-31T01:47:17;8.33;;;4.00;;
3052;SDS011;1536;51.098;6.414;2023-07-31T01:49:44;11.70;;;3.50;;
3052;SDS011;1536;51.098;6.414;2023-07-31T01:52:11;7.40;;;3.73;;
3052;SDS011;1536;51.098;6.414;2023-07-31T01:54:38;8.53;;;3.70;;
3052;SDS011;1536;51.098;6.414;2023-07-31T01:57:05;7.50;;;4.10;;
3052;SDS011;1536;51.098;6.414;2023-07-31T01:59:34;10.93;;;3.40;;
3052;SDS011;1536;51.098;6.414;2023-07-31T02:02:00;12.77;;;4.23;;
3052;SDS011;1536;51.098;6.414;2023-07-31T02:04:27;7.20;;;3.13;;
3052;SDS011;1536;51.098;6.414;2023-07-31T02:06:54;10.30;;;3.97;;
3052;SDS011;1536;51.098;6.414;2023-07-31T02:09:20;6.07;;;3.47;;
3052;SDS011;1536;51.098;6.414;2023-07-31T02:11:47;8.43;;;3.43;;
3052;SDS011;1536;51.098;6.414;2023-07-31T02:14:14;10.67;;;3.80;;
3052;SDS011;1536;51.098;6.414;2023-07-31T02:16:42;8.50;;;3.63;;
3052;SDS011;1536;51.098;6.414;2023-07-31T02:19:09;9.70;;;3.83;;
3052;SDS011;1536;51.098;6.414;2023-07-31T02:21:36;7.97;;;3.83;;
3052;SDS011;1536;51.098;6.414;2023-07-31T02:24:02;5.60;;;3.20;;
3052;SDS011;1536;51.098;6.414;2023-07-31T02:26:30;8.87;;;3.50;;
3052;SDS011;1536;51.098;6.414;2023-07-31T02:28:58;10.00;;;4.50;;
3052;SDS011;1536;51.098;6.414;2023-07-31T02:31:25;6.00;;;3.67;;
3052;SDS011;1536;51.098;6.414;2023-07-31T02:33:53;5.00;;;3.27;;
3052;SDS011;1536;51.098;6.414;2023-07-31T02:36:21;4.80;;;2.97;;
3052;SDS011;1536;51.098;6.414;2023-07-31T02:38:48;8.20;;;4.40;;
3052;SDS011;1536;51.098;6.414;2023-07-31T02:41:14;9.03;;;3.70;;
3052;SDS011;1536;51.098;6.414;2023-07-31T02:43:41;7.97;;;3.10;;
3052;SDS011;1536;51.098;6.414;2023-07-31T02:46:08;11.57;;;4.50;;
3052;SDS011;1536;51.098;6.414;2023-07-31T02:48:35;9.03;;;3.33;;
3052;SDS011;1536;51.098;6.414;2023-07-31T02:51:03;7.40;;;4.90;;
3052;SDS011;1536;51.098;6.414;2023-07-31T02:53:30;10.43;;;4.30;;
3052;SDS011;1536;51.098;6.414;2023-07-31T02:55:56;12.83;;;4.70;;
3052;SDS011;1536;51.098;6.414;2023-07-31T02:58:23;7.23;;;4.20;;
3052;SDS011;1536;51.098;6.414;2023-07-31T03:00:50;8.57;;;4.00;;
3052;SDS011;1536;51.098;6.414;2023-07-31T03:03:17;8.67;;;3.53;;
3052;SDS011;1536;51.098;6.414;2023-07-31T03:05:44;5.80;;;4.00;;
3052;SDS011;1536;51.098;6.414;2023-07-31T03:08:12;7.20;;;3.60;;
3052;SDS011;1536;51.098;6.414;2023-07-31T03:10:38;6.50;;;3.83;;
3052;SDS011;1536;51.098;6.414;2023-07-31T03:13:05;11.90;;;4.30;;
3052;SDS011;1536;51.098;6.414;2023-07-31T03:15:32;7.90;;;3.87;;
3052;SDS011;1536;51.098;6.414;2023-07-31T03:18:00;6.50;;;4.17;;
3052;SDS011;1536;51.098;6.414;2023-07-31T03:20:27;6.30;;;3.50;;
3052;SDS011;1536;51.098;6.414;2023-07-31T03:22:54;6.97;;;4.30;;
3052;SDS011;1536;51.098;6.414;2023-07-31T03:25:22;5.77;;;3.70;;
3052;SDS011;1536;51.098;6.414;2023-07-31T03:27:49;7.77;;;4.60;;
3052;SDS011;1536;51.098;6.414;2023-07-31T03:30:15;7.43;;;3.60;;
3052;SDS011;1536;51.098;6.414;2023-07-31T03:32:42;12.77;;;4.10;;
3052;SDS011;1536;51.098;6.414;2023-07-31T03:35:09;7.00;;;4.20;;
3052;SDS011;1536;51.098;6.414;2023-07-31T03:37:36;10.03;;;5.40;;
3052;SDS011;1536;51.098;6.414;2023-07-31T03:40:03;5.93;;;4.27;;
3052;SDS011;1536;51.098;6.414;2023-07-31T03:42:32;11.30;;;4.03;;
3052;SDS011;1536;51.098;6.414;2023-07-31T03:44:59;13.20;;;4.33;;
3052;SDS011;1536;51.098;6.414;2023-07-31T03:47:26;7.07;;;4.37;;
3052;SDS011;1536;51.098;6.414;2023-07-31T03:49:52;9.40;;;3.90;;
3052;SDS011;1536;51.098;6.414;2023-07-31T03:52:19;7.60;;;3.90;;
3052;SDS011;1536;51.098;6.414;2023-07-31T03:54:46;8.07;;;5.00;;
3052;SDS011;1536;51.098;6.414;2023-07-31T03:57:12;11.20;;;4.63;;
3052;SDS011;1536;51.098;6.414;2023-07-31T03:59:41;8.23;;;4.00;;
3052;SDS011;1536;51.098;6.414;2023-07-31T04:02:08;8.67;;;3.80;;
3052;SDS011;1536;51.098;6.414;2023-07-31T04:04:34;13.90;;;4.20;;
3052;SDS011;1536;51.098;6.414;2023-07-31T04:07:01;8.20;;;4.70;;
3052;SDS011;1536;51.098;6.414;2023-07-31T04:09:28;11.93;;;4.50;;
3052;SDS011;1536;51.098;6.414;2023-07-31T04:11:55;10.10;;;4.30;;
3052;SDS011;1536;51.098;6.414;2023-07-31T04:14:22;7.30;;;4.37;;
3052;SDS011;1536;51.098;6.414;2023-07-31T04:16:53;10.13;;;4.80;;
3052;SDS011;1536;51.098;6.414;2023-07-31T04:19:20;7.83;;;4.97;;
3052;SDS011;1536;51.098;6.414;2023-07-31T04:21:47;7.40;;;4.97;;
3052;SDS011;1536;51.098;6.414;2023-07-31T04:24:14;10.17;;;4.40;;
3052;SDS011;1536;51.098;6.414;2023-07-31T04:26:47;7.57;;;4.90;;
3052;SDS011;1536;51.098;6.414;2023-07-31T04:29:13;6.53;;;4.50;;
3052;SDS011;1536;51.098;6.414;2023-07-31T04:31:41;6.33;;;4.70;;
3052;SDS011;1536;51.098;6.414;2023-07-31T04:34:09;11.40;;;5.30;;
3052;SDS011;1536;51.098;6.414;2023-07-31T04:36:36;11.63;;;4.73;;
3052;SDS011;1536;51.098;6.414;2023-07-31T04:39:03;6.30;;;4.33;;
3052;SDS011;1536;51.098;6.414;2023-07-31T04:41:31;5.77;;;4.00;;
3052;SDS011;1536;51.098;6.414;2023-07-31T04:43:58;6.40;;;4.30;;
3052;SDS011;1536;51.098;6.414;2023-07-31T04:46:25;12.60;;;5.23;;
3052;SDS011;1536;51.098;6.414;2023-07-31T04:48:52;8.83;;;3.73;;
3052;SDS011;1536;51.098;6.414;2023-07-31T04:51:20;8.13;;;4.60;;
3052;SDS011;1536;51.098;6.414;2023-07-31T04:53:48;6.77;;;4.10;;
3052;SDS011;1536;51.098;6.414;2023-07-31T04:56:15;8.43;;;5.50;;
3052;SDS011;1536;51.098;6.414;2023-07-31T04:58:42;5.80;;;4.23;;
3052;SDS011;1536;51.098;6.414;2023-07-31T05:01:09;8.00;;;4.90;;
3052;SDS011;1536;51.098;6.414;2023-07-31T05:03:35;5.40;;;3.77;;
3052;SDS011;1536;51.098;6.414;2023-07-31T05:06:03;11.83;;;4.43;;
3052;SDS011;1536;51.098;6.414;2023-07-31T05:08:31;8.90;;;4.90;;
3052;SDS011;1536;51.098;6.414;2023-07-31T05:10:58;7.40;;;4.37;;
3052;SDS011;1536;51.098;6.414;2023-07-31T05:13:25;8.90;;;3.97;;
3052;SDS011;1536;51.098;6.414;2023-07-31T05:15:52;7.40;;;3.67;;
3052;SDS011;1536;51.098;6.414;2023-07-31T05:18:19;5.20;;;3.50;;
3052;SDS011;1536;51.098;6.414;2023-07-31T05:20:45;4.83;;;3.90;;
3052;SDS011;1536;51.098;6.414;2023-07-31T05:23:12;5.33;;;3.63;;
3052;SDS011;1536;51.098;6.414;2023-07-31T05:25:40;9.13;;;4.23;;
3052;SDS011;1536;51.098;6.414;2023-07-31T05:28:07;6.33;;;4.20;;
3052;SDS011;1536;51.098;6.414;2023-07-31T05:30:34;5.97;;;4.40;;
3052;SDS011;1536;51.098;6.414;2023-07-31T05:33:01;6.03;;;4.17;;
3052;SDS011;1536;51.098;6.414;2023-07-31T05:35:28;4.80;;;3.60;;
3052;SDS011;1536;51.098;6.414;2023-07-31T05:37:54;8.10;;;4.60;;
3052;SDS011;1536;51.098;6.414;2023-07-31T05:40:21;8.57;;;4.10;;
3052;SDS011;1536;51.098;6.414;2023-07-31T05:42:49;8.63;;;4.00;;
3052;SDS011;1536;51.098;6.414;2023-07-31T05:45:16;7.10;;;4.40;;
3052;SDS011;1536;51.098;6.414;2023-07-31T05:47:43;10.23;;;4.00;;
3052;SDS011;1536;51.098;6.414;2023-07-31T05:50:10;6.07;;;3.50;;
3052;SDS011;1536;51.098;6.414;2023-07-31T05:52:38;9.20;;;3.87;;
3052;SDS011;1536;51.098;6.414;2023-07-31T05:55:05;5.90;;;3.50;;
3052;SDS011;1536;51.098;6.414;2023-07-31T05:57:33;6.50;;;4.03;;
3052;SDS011;1536;51.098;6.414;2023-07-31T06:00:04;6.13;;;3.70;;
3052;SDS011;1536;51.098;6.414;2023-07-31T06:02:35;5.40;;;3.60;;
3052;SDS011;1536;51.098;6.414;2023-07-31T06:05:02;10.50;;;4.40;;
3052;SDS011;1536;51.098;6.414;2023-07-31T06:07:30;9.40;;;3.20;;
3052;SDS011;1536;51.098;6.414;2023-07-31T06:09:57;6.10;;;3.33;;
3052;SDS011;1536;51.098;6.414;2023-07-31T06:12:28;8.10;;;3.43;;
3052;SDS011;1536;51.098;6.414;2023-07-31T06:14:56;6.97;;;3.20;;
3052;SDS011;1536;51.098;6.414;2023-07-31T06:17:24;4.67;;;3.50;;
3052;SDS011;1536;51.098;6.414;2023-07-31T06:19:52;5.13;;;2.73;;
3052;SDS011;1536;51.098;6.414;2023-07-31T06:22:19;6.30;;;3.57;;
3052;SDS011;1536;51.098;6.414;2023-07-31T06:24:46;5.37;;;3.90;;
3052;SDS011;1536;51.098;6.414;2023-07-31T06:27:13;5.80;;;3.33;;
3052;SDS011;1536;51.098;6.414;2023-07-31T06:29:40;6.90;;;3.07;;
3052;SDS011;1536;51.098;6.414;2023-07-31T06:32:08;5.33;;;3.10;;
3052;SDS011;1536;51.098;6.414;2023-07-31T06:34:37;7.87;;;3.60;;
3052;SDS011;1536;51.098;6.414;2023-07-31T06:37:06;7.70;;;3.80;;
3052;SDS011;1536;51.098;6.414;2023-07-31T06:39:33;4.60;;;3.27;;
3052;SDS011;1536;51.098;6.414;2023-07-31T06:42:00;8.43;;;3.47;;
3052;SDS011;1536;51.098;6.414;2023-07-31T06:44:27;5.47;;;3.23;;
3052;SDS011;1536;51.098;6.414;2023-07-31T06:46:56;5.80;;;3.27;;
3052;SDS011;1536;51.098;6.414;2023-07-31T06:49:23;5.03;;;3.20;;
3052;SDS011;1536;51.098;6.414;2023-07-31T06:51:52;10.60;;;3.90;;
3052;SDS011;1536;51.098;6.414;2023-07-31T06:54:22;4.60;;;3.00;;
3052;SDS011;1536;51.098;6.414;2023-07-31T06:56:50;12.50;;;3.80;;
3052;SDS011;1536;51.098;6.414;2023-07-31T06:59:16;8.17;;;3.10;;
3052;SDS011;1536;51.098;6.414;2023-07-31T07:01:53;7.40;;;4.27;;
3052;SDS011;1536;51.098;6.414;2023-07-31T07:04:20;9.90;;;4.50;;
3052;SDS011;1536;51.098;6.414;2023-07-31T07:06:49;6.67;;;3.90;;
3052;SDS011;1536;51.098;6.414;2023-07-31T07:09:17;5.47;;;3.50;;
3052;SDS011;1536;51.098;6.414;2023-07-31T07:11:44;7.60;;;3.20;;
3052;SDS011;1536;51.098;6.414;2023-07-31T07:14:11;6.97;;;4.57;;
3052;SDS011;1536;51.098;6.414;2023-07-31T07:16:38;7.53;;;3.37;;
3052;SDS011;1536;51.098;6.414;2023-07-31T07:19:06;5.80;;;3.33;;
3052;SDS011;1536;51.098;6.414;2023-07-31T07:21:32;7.43;;;3.33;;
3052;SDS011;1536;51.098;6.414;2023-07-31T07:23:59;6.87;;;3.20;;
3052;SDS011;1536;51.098;6.414;2023-07-31T07:26:27;4.60;;;3.30;;
3052;SDS011;1536;51.098;6.414;2023-07-31T07:28:54;7.63;;;3.00;;
3052;SDS011;1536;51.098;6.414;2023-07-31T07:31:20;6.43;;;3.17;;
3052;SDS011;1536;51.098;6.414;2023-07-31T07:33:47;8.83;;;3.70;;
3052;SDS011;1536;51.098;6.414;2023-07-31T07:36:14;5.43;;;3.03;;
3052;SDS011;1536;51.098;6.414;2023-07-31T07:38:41;12.07;;;3.30;;
3052;SDS011;1536;51.098;6.414;2023-07-31T07:41:07;8.20;;;3.47;;
3052;SDS011;1536;51.098;6.414;2023-07-31T07:43:35;6.00;;;3.47;;
3052;SDS011;1536;51.098;6.414;2023-07-31T07:46:02;9.13;;;3.37;;
3052;SDS011;1536;51.098;6.414;2023-07-31T07:48:29;7.50;;;3.00;;
3052;SDS011;1536;51.098;6.414;2023-07-31T07:50:56;5.07;;;2.90;;
3052;SDS011;1536;51.098;6.414;2023-07-31T07:53:22;4.67;;;3.10;;
3052;SDS011;1536;51.098;6.414;2023-07-31T07:55:49;3.93;;;3.00;;
3052;SDS011;1536;51.098;6.414;2023-07-31T07:58:16;3.23;;;2.80;;
3052;SDS011;1536;51.098;6.414;2023-07-31T08:00:49;6.40;;;2.53;;
3052;SDS011;1536;51.098;6.414;2023-07-31T08:03:20;6.70;;;3.73;;
3052;SDS011;1536;51.098;6.414;2023-07-31T08:05:47;9.73;;;3.23;;
3052;SDS011;1536;51.098;6.414;2023-07-31T08:08:14;3.73;;;2.70;;
3052;SDS011;1536;51.098;6.414;2023-07-31T08:10:44;2.93;;;2.63;;
3052;SDS011;1536;51.098;6.414;2023-07-31T08:13:11;5.07;;;3.10;;
3052;SDS011;1536;51.098;6.414;2023-07-31T08:15:41;7.30;;;3.70;;
3052;SDS011;1536;51.098;6.414;2023-07-31T08:18:11;3.33;;;2.70;;
3052;SDS011;1536;51.098;6.414;2023-07-31T08:20:38;6.63;;;2.97;;
3052;SDS011;1536;51.098;6.414;2023-07-31T08:23:05;5.97;;;2.80;;
3052;SDS011;1536;51.098;6.414;2023-07-31T08:25:34;6.47;;;3.83;;
3052;SDS011;1536;51.098;6.414;2023-07-31T08:28:02;4.03;;;2.90;;
3052;SDS011;1536;51.098;6.414;2023-07-31T08:30:29;7.87;;;3.57;;
3052;SDS011;1536;51.098;6.414;2023-07-31T08:32:56;7.17;;;4.03;;
3052;SDS011;1536;51.098;6.414;2023-07-31T08:35:25;6.17;;;3.10;;
3052;SDS011;1536;51.098;6.414;2023-07-31T08:37:53;4.67;;;2.80;;
3052;SDS011;1536;51.098;6.414;2023-07-31T08:40:21;3.90;;;3.27;;
3052;SDS011;1536;51.098;6.414;2023-07-31T08:42:49;7.03;;;3.20;;
3052;SDS011;1536;51.098;6.414;2023-07-31T08:45:18;5.80;;;2.83;;
3052;SDS011;1536;51.098;6.414;2023-07-31T08:47:46;4.33;;;2.83;;
3052;SDS011;1536;51.098;6.414;2023-07-31T08:50:14;6.37;;;3.30;;
3052;SDS011;1536;51.098;6.414;2023-07-31T08:52:45;4.70;;;2.73;;
3052;SDS011;1536;51.098;6.414;2023-07-31T08:55:12;3.93;;;2.97;;
3052;SDS011;1536;51.098;6.414;2023-07-31T08:57:40;3.83;;;3.00;;
3052;SDS011;1536;51.098;6.414;2023-07-31T09:00:09;4.03;;;3.00;;
3052;SDS011;1536;51.098;6.414;2023-07-31T09:02:41;5.60;;;3.23;;
3052;SDS011;1536;51.098;6.414;2023-07-31T09:05:12;6.13;;;3.43;;
3052;SDS011;1536;51.098;6.414;2023-07-31T09:07:39;4.43;;;3.40;;
3052;SDS011;1536;51.098;6.414;2023-07-31T09:10:12;3.47;;;2.40;;
3052;SDS011;1536;51.098;6.414;2023-07-31T09:12:39;3.27;;;2.70;;
3052;SDS011;1536;51.098;6.414;2023-07-31T09:15:07;5.50;;;2.90;;
3052;SDS011;1536;51.098;6.414;2023-07-31T09:17:37;6.77;;;3.40;;
3052;SDS011;1536;51.098;6.414;2023-07-31T09:20:12;5.83;;;2.97;;
3052;SDS011;1536;51.098;6.414;2023-07-31T09:22:41;5.43;;;2.90;;
3052;SDS011;1536;51.098;6.414;2023-07-31T09:25:16;5.00;;;3.13;;
3052;SDS011;1536;51.098;6.414;2023-07-31T09:27:51;6.43;;;3.37;;
3052;SDS011;1536;51.098;6.414;2023-07-31T09:30:20;5.23;;;2.97;;
3052;SDS011;1536;51.098;6.414;2023-07-31T09:32:48;5.00;;;2.90;;
3052;SDS011;1536;51.098;6.414;2023-07-31T09:35:18;4.73;;;2.67;;
3052;SDS011;1536;51.098;6.414;2023-07-31T09:37:50;4.13;;;2.97;;
3052;SDS011;1536;51.098;6.414;2023-07-31T09:40:29;7.30;;;2.67;;
3052;SDS011;1536;51.098;6.414;2023-07-31T09:43:00;5.90;;;3.13;;
3052;SDS011;1536;51.098;6.414;2023-07-31T09:45:33;4.87;;;3.47;;
3052;SDS011;1536;51.098;6.414;2023-07-31T09:48:07;3.10;;;2.73;;
3052;SDS011;1536;51.098;6.414;2023-07-31T09:50:45;4.87;;;3.27;;
3052;SDS011;1536;51.098;6.414;2023-07-31T09:53:13;3.40;;;2.53;;
3052;SDS011;1536;51.098;6.414;2023-07-31T09:55:42;6.10;;;2.60;;
3052;SDS011;1536;51.098;6.414;2023-07-31T09:58:17;5.40;;;2.90;;
3052;SDS011;1536;51.098;6.414;2023-07-31T10:00:44;6.00;;;3.30;;
3052;SDS011;1536;51.098;6.414;2023-07-31T10:03:13;4.47;;;2.70;;
3052;SDS011;1536;51.098;6.414;2023-07-31T10:05:42;4.30;;;2.90;;
3052;SDS011;1536;51.098;6.414;2023-07-31T10:08:15;4.87;;;2.97;;
3052;SDS011;1536;51.098;6.414;2023-07-31T10:10:48;3.50;;;2.77;;
3052;SDS011;1536;51.098;6.414;2023-07-31T10:13:15;5.83;;;3.13;;
3052;SDS011;1536;51.098;6.414;2023-07-31T10:15:44;12.77;;;3.27;;
3052;SDS011;1536;51.098;6.414;2023-07-31T10:18:12;5.50;;;3.03;;
3052;SDS011;1536;51.098;6.414;2023-07-31T10:20:40;3.50;;;2.70;;
3052;SDS011;1536;51.098;6.414;2023-07-31T10:23:08;4.60;;;3.17;;
3052;SDS011;1536;51.098;6.414;2023-07-31T10:25:38;4.47;;;2.80;;
3052;SDS011;1536;51.098;6.414;2023-07-31T10:28:07;4.13;;;2.97;;
3052;SDS011;1536;51.098;6.414;2023-07-31T10:30:51;4.30;;;2.90;;
3052;SDS011;1536;51.098;6.414;2023-07-31T10:33:33;6.23;;;2.70;;
3052;SDS011;1536;51.098;6.414;2023-07-31T10:36:12;6.93;;;2.97;;
3052;SDS011;1536;51.098;6.414;2023-07-31T10:38:41;4.13;;;2.90;;
3052;SDS011;1536;51.098;6.414;2023-07-31T10:41:10;3.10;;;2.60;;
3052;SDS011;1536;51.098;6.414;2023-07-31T10:43:46;3.03;;;2.73;;
3052;SDS011;1536;51.098;6.414;2023-07-31T10:46:13;3.83;;;2.23;;
3052;SDS011;1536;51.098;6.414;2023-07-31T10:48:41;3.57;;;2.37;;
3052;SDS011;1536;51.098;6.414;2023-07-31T10:51:09;2.60;;;2.40;;
3052;SDS011;1536;51.098;6.414;2023-07-31T10:53:39;4.40;;;2.43;;
3052;SDS011;1536;51.098;6.414;2023-07-31T10:56:07;2.70;;;1.90;;
3052;SDS011;1536;51.098;6.414;2023-07-31T10:58:38;2.67;;;1.80;;
3052;SDS011;1536;51.098;6.414;2023-07-31T11:01:06;2.30;;;1.73;;
3052;SDS011;1536;51.098;6.414;2023-07-31T11:03:43;1.87;;;1.50;;
3052;SDS011;1536;51.098;6.414;2023-07-31T11:06:12;2.60;;;1.53;;
3052;SDS011;1536;51.098;6.414;2023-07-31T11:08:43;4.60;;;2.37;;
3052;SDS011;1536;51.098;6.414;2023-07-31T11:11:11;1.90;;;1.50;;
3052;SDS011;1536;51.098;6.414;2023-07-31T11:13:41;2.70;;;1.83;;
3052;SDS011;1536;51.098;6.414;2023-07-31T11:16:11;3.27;;;2.33;;
3052;SDS011;1536;51.098;6.414;2023-07-31T11:18:40;2.40;;;1.70;;
3052;SDS011;1536;51.098;6.414;2023-07-31T11:21:07;2.43;;;1.73;;
3052;SDS011;1536;51.098;6.414;2023-07-31T11:23:36;3.83;;;2.27;;
3052;SDS011;1536;51.098;6.414;2023-07-31T11:26:04;2.57;;;1.83;;
3052;SDS011;1536;51.098;6.414;2023-07-31T11:28:34;2.97;;;2.10;;
3052;SDS011;1536;51.098;6.414;2023-07-31T11:31:01;2.67;;;1.60;;
3052;SDS011;1536;51.098;6.414;2023-07-31T11:33:30;3.80;;;1.83;;
3052;SDS011;1536;51.098;6.414;2023-07-31T11:35:57;2.80;;;2.13;;
3052;SDS011;1536;51.098;6.414;2023-07-31T11:38:24;1.93;;;1.70;;
3052;SDS011;1536;51.098;6.414;2023-07-31T11:40:52;2.40;;;1.80;;
3052;SDS011;1536;51.098;6.414;2023-07-31T11:43:19;4.30;;;2.20;;
3052;SDS011;1536;51.098;6.414;2023-07-31T11:45:47;2.80;;;2.33;;
3052;SDS011;1536;51.098;6.414;2023-07-31T11:48:18;3.10;;;1.70;;
3052;SDS011;1536;51.098;6.414;2023-07-31T11:50:48;3.30;;;2.40;;
3052;SDS011;1536;51.098;6.414;2023-07-31T11:53:17;2.93;;;1.80;;
3052;SDS011;1536;51.098;6.414;2023-07-31T11:55:48;2.77;;;1.63;;
3052;SDS011;1536;51.098;6.414;2023-07-31T11:58:16;3.80;;;2.33;;
3052;SDS011;1536;51.098;6.414;2023-07-31T12:00:43;9.17;;;2.33;;
3052;SDS011;1536;51.098;6.414;2023-07-31T12:03:11;2.47;;;1.70;;
3052;SDS011;1536;51.098;6.414;2023-07-31T12:05:38;4.50;;;2.60;;
3052;SDS011;1536;51.098;6.414;2023-07-31T12:08:09;2.80;;;2.10;;
3052;SDS011;1536;51.098;6.414;2023-07-31T12:10:38;3.07;;;2.50;;
3052;SDS011;1536;51.098;6.414;2023-07-31T12:13:07;4.10;;;2.27;;
3052;SDS011;1536;51.098;6.414;2023-07-31T12:15:53;2.90;;;2.10;;
3052;SDS011;1536;51.098;6.414;2023-07-31T12:18:21;3.47;;;2.80;;
3052;SDS011;1536;51.098;6.414;2023-07-31T12:20:53;2.10;;;1.80;;
3052;SDS011;1536;51.098;6.414;2023-07-31T12:23:43;3.97;;;2.73;;
3052;SDS011;1536;51.098;6.414;2023-07-31T12:26:16;3.73;;;2.73;;
3052;SDS011;1536;51.098;6.414;2023-07-31T12:28:45;3.97;;;2.80;;
3052;SDS011;1536;51.098;6.414;2023-07-31T12:31:13;4.70;;;3.23;;
3052;SDS011;1536;51.098;6.414;2023-07-31T12:33:44;4.90;;;2.90;;
3052;SDS011;1536;51.098;6.414;2023-07-31T12:36:20;3.73;;;2.87;;
3052;SDS011;1536;51.098;6.414;2023-07-31T12:38:54;4.13;;;2.93;;
3052;SDS011;1536;51.098;6.414;2023-07-31T12:41:23;3.87;;;3.40;;
3052;SDS011;1536;51.098;6.414;2023-07-31T12:43:50;8.30;;;3.30;;
3052;SDS011;1536;51.098;6.414;2023-07-31T12:46:17;6.50;;;3.50;;
3052;SDS011;1536;51.098;6.414;2023-07-31T12:48:44;3.60;;;3.17;;
3052;SDS011;1536;51.098;6.414;2023-07-31T12:51:11;4.50;;;3.20;;
3052;SDS011;1536;51.098;6.414;2023-07-31T12:53:37;3.63;;;3.27;;
3052;SDS011;1536;51.098;6.414;2023-07-31T12:56:05;6.57;;;2.90;;
3052;SDS011;1536;51.098;6.414;2023-07-31T12:58:32;5.13;;;3.13;;
3052;SDS011;1536;51.098;6.414;2023-07-31T13:00:59;6.33;;;3.07;;
3052;SDS011;1536;51.098;6.414;2023-07-31T13:03:26;5.70;;;3.37;;
3052;SDS011;1536;51.098;6.414;2023-07-31T13:05:53;6.57;;;3.77;;
3052;SDS011;1536;51.098;6.414;2023-07-31T13:08:20;3.63;;;2.60;;
3052;SDS011;1536;51.098;6.414;2023-07-31T13:10:47;3.90;;;2.90;;
3052;SDS011;1536;51.098;6.414;2023-07-31T13:13:15;5.43;;;3.10;;
3052;SDS011;1536;51.098;6.414;2023-07-31T13:15:43;5.03;;;3.37;;
3052;SDS011;1536;51.098;6.414;2023-07-31T13:18:10;6.40;;;3.03;;
3052;SDS011;1536;51.098;6.414;2023-07-31T13:20:36;4.43;;;3.63;;
3052;SDS011;1536;51.098;6.414;2023-07-31T13:23:03;3.23;;;2.70;;
3052;SDS011;1536;51.098;6.414;2023-07-31T13:25:30;4.33;;;3.10;;
3052;SDS011;1536;51.098;6.414;2023-07-31T13:27:57;7.67;;;3.00;;
3052;SDS011;1536;51.098;6.414;2023-07-31T13:30:25;4.43;;;2.90;;
3052;SDS011;1536;51.098;6.414;2023-07-31T13:32:52;6.50;;;3.90;;
3052;SDS011;1536;51.098;6.414;2023-07-31T13:35:19;4.73;;;2.83;;
3052;SDS011;1536;51.098;6.414;2023-07-31T13:37:45;3.60;;;2.60;;
3052;SDS011;1536;51.098;6.414;2023-07-31T13:40:12;4.23;;;3.27;;
3052;SDS011;1536;51.098;6.414;2023-07-31T13:42:39;3.30;;;2.47;;
3052;SDS011;1536;51.098;6.414;2023-07-31T13:45:06;5.03;;;3.10;;
3052;SDS011;1536;51.098;6.414;2023-07-31T13:47:34;2.80;;;2.53;;
3052;SDS011;1536;51.098;6.414;2023-07-31T13:50:02;3.90;;;3.13;;
3052;SDS011;1536;51.098;6.414;2023-07-31T13:52:29;3.00;;;2.60;;
3052;SDS011;1536;51.098;6.414;2023-07-31T13:54:56;4.17;;;3.00;;
3052;SDS011;1536;51.098;6.414;2023-07-31T13:57:22;3.53;;;2.37;;
3052;SDS011;1536;51.098;6.414;2023-07-31T13:59:49;5.20;;;3.00;;
3052;SDS011;1536;51.098;6.414;2023-07-31T14:02:16;3.37;;;2.77;;
3052;SDS011;1536;51.098;6.414;2023-07-31T14:04:44;3.47;;;3.07;;
3052;SDS011;1536;51.098;6.414;2023-07-31T14:07:11;4.17;;;2.60;;
3052;SDS011;1536;51.098;6.414;2023-07-31T14:09:37;6.80;;;3.87;;
3052;SDS011;1536;51.098;6.414;2023-07-31T14:12:05;5.67;;;2.93;;
3052;SDS011;1536;51.098;6.414;2023-07-31T14:14:32;3.73;;;2.90;;
3052;SDS011;1536;51.098;6.414;2023-07-31T14:16:59;4.00;;;3.10;;
3052;SDS011;1536;51.098;6.414;2023-07-31T14:19:25;4.10;;;2.60;;
3052;SDS011;1536;51.098;6.414;2023-07-31T14:21:54;3.20;;;2.60;;
3052;SDS011;1536;51.098;6.414;2023-07-31T14:24:20;5.10;;;3.50;;
3052;SDS011;1536;51.098;6.414;2023-07-31T14:26:47;5.00;;;3.37;;
3052;SDS011;1536;51.098;6.414;2023-07-31T14:29:14;4.87;;;2.93;;
3052;SDS011;1536;51.098;6.414;2023-07-31T14:31:41;4.50;;;3.10;;
3052;SDS011;1536;51.098;6.414;2023-07-31T14:34:07;4.40;;;3.77;;
3052;SDS011;1536;51.098;6.414;2023-07-31T14:36:34;5.00;;;3.37;;
3052;SDS011;1536;51.098;6.414;2023-07-31T14:39:02;5.53;;;3.87;;
3052;SDS011;1536;51.098;6.414;2023-07-31T14:41:29;4.37;;;3.27;;
3052;SDS011;1536;51.098;6.414;2023-07-31T14:43:56;5.60;;;3.30;;
3052;SDS011;1536;51.098;6.414;2023-07-31T14:46:23;6.07;;;4.20;;
3052;SDS011;1536;51.098;6.414;2023-07-31T14:48:49;5.37;;;3.57;;
3052;SDS011;1536;51.098;6.414;2023-07-31T14:51:16;4.10;;;3.70;;
3052;SDS011;1536;51.098;6.414;2023-07-31T14:53:43;4.30;;;3.47;;
3052;SDS011;1536;51.098;6.414;2023-07-31T14:56:11;7.10;;;3.90;;
3052;SDS011;1536;51.098;6.414;2023-07-31T14:58:38;4.57;;;3.50;;
3052;SDS011;1536;51.098;6.414;2023-07-31T15:01:05;7.00;;;3.87;;
3052;SDS011;1536;51.098;6.414;2023-07-31T15:03:31;4.93;;;3.50;;
3052;SDS011;1536;51.098;6.414;2023-07-31T15:05:58;4.50;;;3.37;;
3052;SDS011;1536;51.098;6.414;2023-07-31T15:08:25;6.67;;;3.53;;
3052;SDS011;1536;51.098;6.414;2023-07-31T15:10:51;5.43;;;3.43;;
3052;SDS011;1536;51.098;6.414;2023-07-31T15:13:23;8.83;;;3.70;;
3052;SDS011;1536;51.098;6.414;2023-07-31T15:15:50;5.40;;;3.20;;
3052;SDS011;1536;51.098;6.414;2023-07-31T15:18:17;5.37;;;3.40;;
3052;SDS011;1536;51.098;6.414;2023-07-31T15:23:19;5.40;;;3.67;;
3052;SDS011;1536;51.098;6.414;2023-07-31T15:25:46;4.87;;;3.07;;
3052;SDS011;1536;51.098;6.414;2023-07-31T15:28:13;5.00;;;3.80;;